Data for 03/31/2014

Time Sea-Level Adjusted Pressure Absolute Pressure Temperature Relative Humidity Dew Point   
(mb) (inHg) (mb) (inHg) (C) (F) (%) (C) (F)
00:05 1015 29.97 844 24.92 -2.1 28.2 95 -2.7 27.1
00:10 1015 29.97 844 24.92 -2.1 28.1 95 -2.8 27
00:15 1015 29.97 844 24.92 -2.3 27.9 95 -2.9 26.7
00:20 1015 29.97 844 24.92 -2.4 27.8 95 -3.1 26.5
00:25 1015 29.97 844 24.92 -2.4 27.7 95 -3 26.5
00:30 1015 29.97 845 24.95 -2.3 27.8 95 -3 26.6
00:35 1015 29.97 845 24.95 -2.3 27.8 95 -3 26.5
00:40 1015 29.97 845 24.95 -2.4 27.6 95 -3.2 26.3
00:45 1015 29.97 845 24.95 -2.5 27.5 95 -3.2 26.3
00:50 1015 29.97 845 24.95 -2.5 27.5 95 -3.2 26.2
00:55 1015 29.97 845 24.95 -2.6 27.4 95 -3.3 26.1
01:00 1016 30 845 24.95 -2.6 27.4 95 -3.3 26.1
01:05 1016 30 845 24.95 -2.6 27.2 95 -3.4 25.9
01:10 1016 30 845 24.95 -2.7 27.1 95 -3.4 25.8
01:15 1016 30 845 24.95 -2.8 27 95 -3.5 25.8
01:20 1016 30 845 24.95 -2.8 27 95 -3.5 25.8
01:25 1016 30 845 24.95 -2.8 27 95 -3.4 25.8
01:30 1016 30 845 24.95 -2.7 27.1 95 -3.4 25.9
01:35 1016 30 845 24.95 -2.7 27.1 95 -3.4 25.9
01:40 1016 30 845 24.95 -2.7 27.1 95 -3.3 26
01:45 1016 30 845 24.95 -2.7 27.2 95 -3.3 26
01:50 1016 30 845 24.95 -2.6 27.3 95 -3.3 26.1
01:55 1016 30 845 24.95 -2.6 27.3 95 -3.3 26.1
02:00 1016 30 845 24.95 -2.6 27.3 95 -3.3 26
02:05 1016 30 845 24.95 -2.6 27.3 95 -3.3 26
02:10 1016 30 845 24.95 -2.6 27.3 95 -3.3 26
02:15 1016 30 845 24.95 -2.6 27.4 95 -3.3 26.1
02:20 1016 30 845 24.95 -2.5 27.4 95 -3.3 26.1
02:25 1016 30 845 24.95 -2.6 27.4 94 -3.4 25.9
02:30 1016 30 845 24.95 -2.7 27.2 95 -3.4 25.8
02:35 1016 30 845 24.95 -2.7 27.1 95 -3.5 25.7
02:40 1016 30 845 24.95 -2.8 27 95 -3.5 25.7
02:45 1016 30 845 24.95 -2.8 27 95 -3.5 25.7
02:50 1016 30 845 24.95 -2.8 27 95 -3.5 25.7
02:55 1016 30 845 24.95 -2.8 27 95 -3.5 25.7
03:00 1016 30 845 24.95 -2.8 27 95 -3.5 25.7
03:05 1016 30 845 24.95 -2.7 27.1 95 -3.4 25.8
03:10 1016 30 845 24.95 -2.7 27.1 95 -3.4 25.8
03:15 1016 30 845 24.95 -2.7 27.1 95 -3.4 25.8
03:20 1016 30 845 24.95 -2.8 27 95 -3.5 25.8
03:25 1016 30 845 24.95 -2.7 27.1 95 -3.4 25.8
03:30 1016 30 845 24.95 -2.7 27.1 95 -3.4 25.8
03:35 1016 30 845 24.95 -2.8 27 95 -3.5 25.7
03:40 1016 30 845 24.95 -2.8 27 95 -3.5 25.7
03:45 1016 30 845 24.95 -2.7 27.1 95 -3.5 25.7
03:50 1016 30 845 24.95 -2.7 27.1 94 -3.5 25.7
03:55 1016 30 845 24.95 -2.7 27.2 94 -3.5 25.7
04:00 1016 30 845 24.95 -2.7 27.2 94 -3.5 25.7
04:05 1016 30 845 24.95 -2.7 27.2 94 -3.5 25.7
04:10 1016 30 845 24.95 -2.6 27.3 94 -3.4 25.8
04:15 1016 30 845 24.95 -2.6 27.3 94 -3.4 25.9
04:20 1016 30 846 24.98 -2.6 27.4 94 -3.4 26
04:25 1016 30 845 24.95 -2.6 27.3 94 -3.4 25.9
04:30 1016 30 845 24.95 -2.6 27.3 94 -3.4 25.8
04:35 1016 30 845 24.95 -2.6 27.3 94 -3.4 25.8
04:40 1016 30 845 24.95 -2.7 27.2 94 -3.5 25.8
04:45 1016 30 845 24.95 -2.7 27.1 94 -3.5 25.7
04:50 1016 30 846 24.98 -2.7 27.1 94 -3.5 25.6
04:55 1016 30 846 24.98 -2.7 27.1 95 -3.5 25.7
05:00 1016 30 846 24.98 -2.8 27 94 -3.5 25.6
05:05 1016 30 846 24.98 -2.8 27 95 -3.5 25.6
05:10 1016 30 846 24.98 -2.8 27 95 -3.5 25.7
05:15 1016 30 846 24.98 -2.7 27.1 95 -3.5 25.7
05:20 1016 30 846 24.98 -2.7 27.1 95 -3.5 25.8
05:25 1016 30 846 24.98 -2.7 27.1 95 -3.5 25.8
05:30 1016 30 846 24.98 -2.7 27.2 94 -3.5 25.8
05:35 1016 30 846 24.98 -2.7 27.2 94 -3.5 25.7
05:40 1016 30 846 24.98 -2.7 27.2 94 -3.5 25.7
05:45 1016 30 846 24.98 -2.7 27.2 94 -3.5 25.8
05:50 1016 30 846 24.98 -2.6 27.2 94 -3.4 25.9
05:55 1016 30 846 24.98 -2.6 27.3 95 -3.4 25.9
06:00 1016 30 846 24.98 -2.7 27.2 94 -3.5 25.8
06:05 1016 30 846 24.98 -2.7 27.1 94 -3.5 25.6
06:10 1016 30 846 24.98 -2.7 27.1 94 -3.5 25.6
06:15 1016 30 846 24.98 -2.7 27.1 94 -3.5 25.7
06:20 1016 30 846 24.98 -2.7 27.1 94 -3.5 25.7
06:25 1016 30 846 24.98 -2.7 27.1 94 -3.6 25.6
06:30 1017 30.03 846 24.98 -2.6 27.2 94 -3.5 25.6
06:35 1017 30.03 846 24.98 -2.6 27.3 93 -3.6 25.6
06:40 1017 30.03 846 24.98 -2.6 27.4 93 -3.6 25.5
06:45 1017 30.03 846 24.98 -2.5 27.5 91 -3.7 25.3
06:50 1017 30.03 846 24.98 -2.4 27.6 90 -3.9 25.1
06:55 1017 30.03 846 24.98 -2.4 27.7 91 -3.7 25.3
07:00 1017 30.03 846 24.98 -2.4 27.8 92 -3.6 25.6
07:05 1017 30.03 846 24.98 -2.2 28 92 -3.4 25.9
07:10 1017 30.03 846 24.98 -2.1 28.2 92 -3.2 26.2
07:15 1017 30.03 846 24.98 -2.1 28.3 92 -3.3 26.1
07:20 1017 30.03 846 24.98 -2 28.4 90 -3.4 25.9
07:25 1017 30.03 846 24.98 -2 28.4 90 -3.4 25.9
07:30 1017 30.03 846 24.98 -1.9 28.6 89 -3.4 25.8
07:35 1017 30.03 846 24.98 -1.9 28.7 90 -3.3 26
07:40 1017 30.03 846 24.98 -1.8 28.8 90 -3.2 26.3
07:45 1017 30.03 846 24.98 -1.6 29.2 89 -3.2 26.2
07:50 1017 30.03 846 24.98 -1.3 29.6 88 -3.1 26.5
07:55 1017 30.03 846 24.98 -1.3 29.7 87 -3.2 26.2
08:00 1017 30.03 846 24.98 -1.4 29.5 87 -3.4 25.9
08:05 1017 30.03 846 24.98 -1.5 29.3 88 -3.3 26.1
08:10 1017 30.03 846 24.98 -1.4 29.4 88 -3.2 26.3
08:15 1017 30.03 846 24.98 -1.4 29.4 87 -3.3 26.1
08:20 1017 30.03 846 24.98 -1.5 29.2 88 -3.2 26.2
08:25 1017 30.03 846 24.98 -1.6 29.2 89 -3.2 26.3
08:30 1017 30.03 846 24.98 -1.5 29.4 90 -3 26.7
08:35 1017 30.03 846 24.98 -0.8 30.5 86 -2.9 26.7
08:40 1017 30.03 846 24.98 -0.9 30.4 87 -2.8 26.9
08:45 1017 30.03 846 24.98 -0.7 30.7 85 -2.9 26.8
08:50 1017 30.03 846 24.98 -0.4 31.2 83 -2.9 26.8
08:55 1017 30.03 846 24.98 -0.2 31.7 81 -3.1 26.4
09:00 1017 30.03 846 24.98 -0.1 31.9 81 -2.9 26.7
09:05 1017 30.03 846 24.98 -0 32 81 -2.9 26.8
09:10 1017 30.03 846 24.98 0.4 32.7 81 -2.6 27.4
09:15 1017 30.03 846 24.98 0.8 33.4 79 -2.4 27.6
09:20 1017 30.03 846 24.98 0.8 33.5 80 -2.3 27.9
09:25 1017 30.03 846 24.98 1.1 34 75 -2.9 26.8
09:30 1017 30.03 846 24.98 0.7 33.2 77 -3 26.7
09:35 1017 30.03 846 24.98 0.6 33.1 80 -2.4 27.6
09:40 1017 30.03 846 24.98 1.1 34 76 -2.6 27.3
09:45 1017 30.03 846 24.98 1.3 34.3 73 -3 26.5
09:50 1017 30.03 846 24.98 1.2 34.2 74 -2.9 26.8
09:55 1017 30.03 846 24.98 1.5 34.7 73 -2.9 26.8
10:00 1017 30.03 846 24.98 2 35.6 73 -2.3 27.9
10:05 1017 30.03 846 24.98 1.3 34.3 76 -2.5 27.5
10:10 1017 30.03 846 24.98 0.8 33.5 80 -2.2 28.1
10:15 1017 30.03 846 24.98 1.6 34.8 76 -2.2 28.1
10:20 1017 30.03 846 24.98 1.8 35.2 73 -2.5 27.5
10:25 1017 30.03 846 24.98 1.5 34.8 73 -2.8 26.9
10:30 1017 30.03 846 24.98 1.7 35.1 72 -2.8 26.9
10:35 1017 30.03 846 24.98 3.1 37.5 67 -2.4 27.6
10:40 1017 30.03 846 24.98 3.4 38.1 68 -1.8 28.7
10:45 1017 30.03 846 24.98 2.6 36.8 69 -2.4 27.7
10:50 1017 30.03 846 24.98 3.1 37.6 67 -2.4 27.7
10:55 1016 30 846 24.98 3.6 38.4 67 -2 28.4
11:00 1016 30 846 24.98 4 39.2 66 -1.7 28.9
11:05 1016 30 846 24.98 4.3 39.7 67 -1.2 29.8
11:10 1016 30 846 24.98 3.3 37.9 68 -2 28.4
11:15 1016 30 846 24.98 2.4 36.4 71 -2.4 27.7
11:20 1016 30 846 24.98 2.5 36.4 68 -2.9 26.8
11:25 1016 30 845 24.95 2.5 36.6 73 -1.8 28.8
11:30 1016 30 845 24.95 2.1 35.9 72 -2.3 27.8
11:35 1016 30 845 24.95 1.9 35.4 68 -3.3 26
11:40 1016 30 845 24.95 1.7 35.1 74 -2.5 27.5
11:45 1016 30 845 24.95 1.7 35 69 -3.3 26
11:50 1016 30 845 24.95 2.5 36.5 67 -3 26.5
11:55 1016 30 845 24.95 3.4 38.1 60 -3.5 25.7
12:00 1016 30 845 24.95 3.5 38.3 59 -3.7 25.3
12:05 1016 30 845 24.95 3.7 38.6 67 -1.9 28.6
12:10 1016 30 845 24.95 3.8 38.8 68 -1.5 29.3
12:15 1016 30 845 24.95 4.4 40 61 -2.3 27.8
12:20 1016 30 845 24.95 4.1 39.4 66 -1.6 29.1
12:25 1016 30 845 24.95 4.1 39.4 62 -2.6 27.3
12:30 1016 30 845 24.95 3.8 38.9 63 -2.5 27.6
12:35 1016 30 845 24.95 3.8 38.9 70 -1.2 29.8
12:40 1016 30 845 24.95 4.1 39.5 62 -2.5 27.5
12:45 1015 29.97 845 24.95 4.1 39.4 60 -3 26.5
12:50 1015 29.97 845 24.95 3.8 38.9 62 -2.7 27.1
12:55 1015 29.97 845 24.95 3.3 38 60 -3.7 25.4
13:00 1015 29.97 845 24.95 3.7 38.6 63 -2.7 27.1
13:05 1015 29.97 844 24.92 3.4 38.1 62 -3.2 26.3
13:10 1015 29.97 844 24.92 3.8 38.9 62 -2.9 26.8
13:15 1015 29.97 844 24.92 3.2 37.8 62 -3.4 25.9
13:20 1015 29.97 844 24.92 3 37.5 65 -3 26.7
13:25 1015 29.97 844 24.92 3.8 38.8 58 -3.7 25.4
13:30 1015 29.97 844 24.92 3.9 39 55 -4.3 24.3
13:35 1015 29.97 844 24.92 3.1 37.6 58 -4.3 24.3
13:40 1015 29.97 844 24.92 3.1 37.6 61 -3.6 25.5
13:45 1015 29.97 844 24.92 3.7 38.6 61 -3.2 26.2
13:50 1015 29.97 844 24.92 4.3 39.7 57 -3.6 25.5
13:55 1015 29.97 844 24.92 4.5 40.1 54 -3.9 25
14:00 1015 29.97 844 24.92 3.9 39 60 -3.2 26.2
14:05 1015 29.97 844 24.92 3.5 38.4 58 -3.9 25
14:10 1015 29.97 844 24.92 4.3 39.8 53 -4.4 24.1
14:15 1015 29.97 844 24.92 3.5 38.3 55 -4.6 23.7
14:20 1014 29.94 844 24.92 3.3 38 53 -5.3 22.4
14:25 1014 29.94 844 24.92 4 39.2 51 -5.3 22.4
14:30 1014 29.94 843 24.89 3.9 39.1 51 -5.2 22.7
14:35 1014 29.94 843 24.89 3.8 38.9 53 -4.9 23.2
14:40 1014 29.94 843 24.89 4 39.2 53 -4.8 23.4
14:45 1014 29.94 843 24.89 4 39.1 53 -4.9 23.3
14:50 1014 29.94 843 24.89 4.1 39.4 53 -4.7 23.5
14:55 1014 29.94 843 24.89 3.9 39.1 53 -4.9 23.3
15:00 1014 29.94 843 24.89 4.3 39.8 54 -4.2 24.4
15:05 1014 29.94 843 24.89 4.6 40.2 53 -4.1 24.6
15:10 1014 29.94 843 24.89 4.8 40.7 53 -4.1 24.7
15:15 1014 29.94 843 24.89 3.9 39 54 -4.6 23.8
15:20 1014 29.94 843 24.89 3.8 38.9 55 -4.4 24.1
15:25 1014 29.94 843 24.89 3.8 38.9 59 -3.5 25.7
15:30 1014 29.94 843 24.89 4 39.2 57 -3.8 25.1
15:35 1014 29.94 843 24.89 3.8 38.9 57 -4 24.8
15:40 1014 29.94 843 24.89 3.8 38.8 57 -3.9 25
15:45 1014 29.94 843 24.89 3.3 38 61 -3.4 25.8
15:50 1014 29.94 843 24.89 3.5 38.3 61 -3.3 26.1
15:55 1014 29.94 843 24.89 3.1 37.5 64 -3 26.5
16:00 1014 29.94 843 24.89 2.9 37.3 64 -3.2 26.2
16:05 1014 29.94 843 24.89 2.9 37.2 64 -3.2 26.3
16:10 1014 29.94 843 24.89 2.5 36.5 65 -3.3 26
16:15 1014 29.94 843 24.89 2.3 36.2 65 -3.6 25.5
16:20 1013 29.91 843 24.89 2.3 36.1 67 -3.3 26
16:25 1013 29.91 843 24.89 1.8 35.2 67 -3.8 25.2
16:30 1013 29.91 843 24.89 1.9 35.4 67 -3.5 25.6
16:35 1013 29.91 843 24.89 1.8 35.2 68 -3.6 25.6
16:40 1013 29.91 843 24.89 1.8 35.3 67 -3.6 25.6
16:45 1013 29.91 842 24.86 2 35.6 66 -3.7 25.4
16:50 1013 29.91 842 24.86 1.6 34.8 67 -3.9 25
16:55 1013 29.91 842 24.86 1.1 34.1 69 -4 24.8
17:00 1013 29.91 842 24.86 1.1 34 69 -4 24.7
17:05 1013 29.91 842 24.86 1.4 34.6 67 -4 24.9
17:10 1013 29.91 842 24.86 1.3 34.4 69 -3.8 25.1
17:15 1013 29.91 842 24.86 1.2 34.2 69 -3.9 25
17:20 1013 29.91 842 24.86 1.1 33.9 69 -4 24.7
17:25 1013 29.91 842 24.86 0.8 33.5 70 -4.1 24.7
17:30 1013 29.91 842 24.86 0.7 33.3 70 -4.1 24.6
17:35 1013 29.91 842 24.86 0.7 33.2 70 -4.1 24.6
17:40 1013 29.91 842 24.86 0.6 33.1 71 -4.2 24.5
17:45 1013 29.91 842 24.86 0.6 33 71 -4.1 24.6
17:50 1013 29.91 842 24.86 0.4 32.8 73 -3.9 25
17:55 1013 29.91 842 24.86 0.3 32.5 73 -3.9 24.9
18:00 1013 29.91 842 24.86 0.2 32.3 74 -4 24.8
18:05 1013 29.91 842 24.86 0 32.1 75 -3.9 24.9
18:10 1013 29.91 842 24.86 0 32.1 75 -3.9 24.9
18:15 1013 29.91 842 24.86 0.1 32.2 75 -3.8 25.2
18:20 1013 29.91 842 24.86 0.1 32.2 75 -3.7 25.3
18:25 1013 29.91 842 24.86 0.1 32.1 75 -3.8 25.2
18:30 1013 29.91 842 24.86 0 32.1 76 -3.7 25.3
18:35 1013 29.91 842 24.86 -0.1 31.8 77 -3.7 25.4
18:40 1013 29.91 842 24.86 -0.1 31.8 77 -3.7 25.3
18:45 1013 29.91 842 24.86 -0.2 31.7 77 -3.8 25.1
18:50 1013 29.91 842 24.86 -0.3 31.4 77 -3.8 25.1
18:55 1013 29.91 842 24.86 -0.5 31.2 78 -3.9 24.9
19:00 1013 29.91 842 24.86 -0.5 31.1 78 -4 24.9
19:05 1013 29.91 842 24.86 -0.6 30.9 78 -4.1 24.7
19:10 1013 29.91 842 24.86 -0.7 30.8 77 -4.1 24.6
19:15 1013 29.91 842 24.86 -0.7 30.7 78 -4.1 24.6
19:20 1013 29.91 842 24.86 -0.9 30.5 79 -4.1 24.6
19:25 1013 29.91 842 24.86 -1 30.3 79 -4.2 24.5
19:30 1013 29.91 842 24.86 -1 30.1 79 -4.2 24.4
19:35 1013 29.91 842 24.86 -1.1 30 79 -4.2 24.4
19:40 1013 29.91 842 24.86 -1.1 30 79 -4.3 24.3
19:45 1013 29.91 842 24.86 -1.2 29.9 80 -4.2 24.4
19:50 1013 29.91 842 24.86 -1.2 29.9 80 -4.2 24.4
19:55 1013 29.91 842 24.86 -1.1 30 80 -4.2 24.5
20:00 1013 29.91 842 24.86 -1.1 30 80 -4.2 24.5
20:05 1013 29.91 842 24.86 -1.1 30.1 80 -4.1 24.6
20:10 1013 29.91 842 24.86 -1.1 30.1 80 -4.1 24.6
20:15 1013 29.91 842 24.86 -1.1 30.1 80 -4.1 24.6
20:20 1013 29.91 842 24.86 -1.1 30.1 80 -4.1 24.6
20:25 1013 29.91 842 24.86 -1.1 30 80 -4.2 24.5
20:30 1013 29.91 842 24.86 -1 30.1 79 -4.3 24.3
20:35 1013 29.91 842 24.86 -1 30.2 79 -4.1 24.5
20:40 1013 29.91 842 24.86 -1.1 30 80 -4.1 24.5
20:45 1013 29.91 842 24.86 -1.2 29.8 80 -4.2 24.4
20:50 1013 29.91 842 24.86 -1.3 29.6 81 -4.1 24.5
20:55 1013 29.91 842 24.86 -1.5 29.3 82 -4.2 24.4
21:00 1013 29.91 842 24.86 -1.4 29.4 81 -4.3 24.2
21:05 1013 29.91 842 24.86 -1.4 29.5 81 -4.2 24.5
21:10 1013 29.91 842 24.86 -1.5 29.2 81 -4.3 24.2
21:15 1013 29.91 842 24.86 -1.5 29.2 81 -4.4 24.1
21:20 1013 29.91 842 24.86 -1.5 29.3 81 -4.4 24
21:25 1013 29.91 842 24.86 -1.5 29.2 81 -4.4 24
21:30 1013 29.91 842 24.86 -1.6 29.1 81 -4.5 24
21:35 1013 29.91 842 24.86 -1.7 29 82 -4.4 24
21:40 1013 29.91 842 24.86 -1.8 28.8 82 -4.5 23.8
21:45 1013 29.91 842 24.86 -1.9 28.6 82 -4.6 23.8
21:50 1013 29.91 842 24.86 -1.9 28.5 82 -4.6 23.7
21:55 1013 29.91 842 24.86 -2 28.4 81 -4.8 23.4
22:00 1013 29.91 842 24.86 -2 28.5 81 -4.8 23.4
22:05 1013 29.91 842 24.86 -2 28.4 82 -4.7 23.5
22:10 1013 29.91 842 24.86 -2 28.3 82 -4.7 23.5
22:15 1013 29.91 842 24.86 -2 28.4 82 -4.7 23.5
22:20 1013 29.91 842 24.86 -2 28.4 82 -4.7 23.5
22:25 1012 29.88 842 24.86 -2 28.4 82 -4.7 23.5
22:30 1012 29.88 842 24.86 -2 28.5 81 -4.8 23.3
22:35 1012 29.88 842 24.86 -2 28.5 80 -5 23.1
22:40 1012 29.88 842 24.86 -2 28.4 80 -5 22.9
22:45 1012 29.88 841 24.83 -2 28.4 80 -5.1 22.8
22:50 1012 29.88 841 24.83 -2.1 28.3 80 -5.1 22.8
22:55 1012 29.88 841 24.83 -2.1 28.1 81 -5 23
23:00 1012 29.88 841 24.83 -2.3 27.9 81 -5.1 22.8
23:05 1012 29.88 841 24.83 -2.3 27.8 81 -5.1 22.7
23:10 1012 29.88 841 24.83 -2.3 27.9 81 -5.2 22.7
23:15 1012 29.88 841 24.83 -2.3 27.9 81 -5.1 22.8
23:20 1012 29.88 841 24.83 -2.3 27.9 81 -5 22.9
23:25 1012 29.88 841 24.83 -2.3 27.8 81 -5.1 22.8
23:30 1012 29.88 841 24.83 -2.4 27.8 81 -5.1 22.8
23:35 1012 29.88 841 24.83 -2.4 27.6 81 -5.3 22.5
23:40 1012 29.88 841 24.83 -2.4 27.7 81 -5.3 22.4
23:45 1012 29.88 841 24.83 -2.5 27.6 81 -5.3 22.5
23:50 1012 29.88 841 24.83 -2.5 27.4 80 -5.5 22.2
23:55 1012 29.88 841 24.83 -2.6 27.3 81 -5.4 22.2
24:00 1012 29.88 841 24.83 -2.7 27.2 81 -5.5 22.2